sensor_id;sensor_type;location;lat;lon;timestamp;P1;durP1;ratioP1;P2;durP2;ratioP2
76786;SDS011;65739;51.482;5.702;2023-08-07T00:01:34;11.23;;;2.03;;
76786;SDS011;65739;51.482;5.702;2023-08-07T00:04:00;5.97;;;1.38;;
76786;SDS011;65739;51.482;5.702;2023-08-07T00:06:25;8.52;;;1.70;;
76786;SDS011;65739;51.482;5.702;2023-08-07T00:08:51;7.50;;;1.95;;
76786;SDS011;65739;51.482;5.702;2023-08-07T00:11:16;9.15;;;1.95;;
76786;SDS011;65739;51.482;5.702;2023-08-07T00:13:42;11.13;;;2.10;;
76786;SDS011;65739;51.482;5.702;2023-08-07T00:16:08;14.15;;;2.83;;
76786;SDS011;65739;51.482;5.702;2023-08-07T00:18:35;13.65;;;2.20;;
76786;SDS011;65739;51.482;5.702;2023-08-07T00:21:00;12.15;;;2.80;;
76786;SDS011;65739;51.482;5.702;2023-08-07T00:23:26;10.00;;;2.58;;
76786;SDS011;65739;51.482;5.702;2023-08-07T00:25:52;11.40;;;2.28;;
76786;SDS011;65739;51.482;5.702;2023-08-07T00:28:17;15.18;;;2.35;;
76786;SDS011;65739;51.482;5.702;2023-08-07T00:30:43;12.45;;;2.22;;
76786;SDS011;65739;51.482;5.702;2023-08-07T00:33:08;9.90;;;1.73;;
76786;SDS011;65739;51.482;5.702;2023-08-07T00:35:34;7.60;;;1.80;;
76786;SDS011;65739;51.482;5.702;2023-08-07T00:37:59;7.47;;;1.70;;
76786;SDS011;65739;51.482;5.702;2023-08-07T00:40:25;7.18;;;1.90;;
76786;SDS011;65739;51.482;5.702;2023-08-07T00:42:51;10.85;;;2.22;;
76786;SDS011;65739;51.482;5.702;2023-08-07T00:45:16;11.35;;;1.70;;
76786;SDS011;65739;51.482;5.702;2023-08-07T00:47:42;6.85;;;1.65;;
76786;SDS011;65739;51.482;5.702;2023-08-07T00:50:08;5.72;;;1.52;;
76786;SDS011;65739;51.482;5.702;2023-08-07T00:52:35;10.57;;;1.85;;
76786;SDS011;65739;51.482;5.702;2023-08-07T00:55:01;9.70;;;1.70;;
76786;SDS011;65739;51.482;5.702;2023-08-07T00:57:27;6.32;;;1.58;;
76786;SDS011;65739;51.482;5.702;2023-08-07T00:59:53;10.45;;;1.95;;
76786;SDS011;65739;51.482;5.702;2023-08-07T01:02:19;5.93;;;1.60;;
76786;SDS011;65739;51.482;5.702;2023-08-07T01:04:45;11.70;;;2.10;;
76786;SDS011;65739;51.482;5.702;2023-08-07T01:07:11;6.85;;;1.38;;
76786;SDS011;65739;51.482;5.702;2023-08-07T01:09:37;9.65;;;1.77;;
76786;SDS011;65739;51.482;5.702;2023-08-07T01:12:10;5.55;;;1.70;;
76786;SDS011;65739;51.482;5.702;2023-08-07T01:14:55;8.70;;;1.83;;
76786;SDS011;65739;51.482;5.702;2023-08-07T01:17:27;6.63;;;2.00;;
76786;SDS011;65739;51.482;5.702;2023-08-07T01:19:53;6.72;;;1.83;;
76786;SDS011;65739;51.482;5.702;2023-08-07T01:22:20;8.43;;;1.75;;
76786;SDS011;65739;51.482;5.702;2023-08-07T01:24:47;9.20;;;2.22;;
76786;SDS011;65739;51.482;5.702;2023-08-07T01:32:18;7.53;;;2.42;;
76786;SDS011;65739;51.482;5.702;2023-08-07T01:34:52;9.40;;;1.63;;
76786;SDS011;65739;51.482;5.702;2023-08-07T01:37:21;17.00;;;2.08;;
76786;SDS011;65739;51.482;5.702;2023-08-07T01:39:48;7.43;;;1.52;;
76786;SDS011;65739;51.482;5.702;2023-08-07T01:42:16;9.45;;;1.92;;
76786;SDS011;65739;51.482;5.702;2023-08-07T01:44:42;10.30;;;1.90;;
76786;SDS011;65739;51.482;5.702;2023-08-07T01:47:07;9.18;;;2.15;;
76786;SDS011;65739;51.482;5.702;2023-08-07T01:49:33;14.10;;;2.38;;
76786;SDS011;65739;51.482;5.702;2023-08-07T01:51:58;7.40;;;2.00;;
76786;SDS011;65739;51.482;5.702;2023-08-07T01:54:24;10.98;;;2.30;;
76786;SDS011;65739;51.482;5.702;2023-08-07T01:56:50;12.35;;;2.05;;
76786;SDS011;65739;51.482;5.702;2023-08-07T01:59:15;17.00;;;2.30;;
76786;SDS011;65739;51.482;5.702;2023-08-07T02:01:41;8.75;;;2.10;;
76786;SDS011;65739;51.482;5.702;2023-08-07T02:04:06;8.68;;;2.03;;
76786;SDS011;65739;51.482;5.702;2023-08-07T02:06:32;6.65;;;2.10;;
76786;SDS011;65739;51.482;5.702;2023-08-07T02:08:57;9.85;;;2.08;;
76786;SDS011;65739;51.482;5.702;2023-08-07T02:11:23;11.20;;;2.63;;
76786;SDS011;65739;51.482;5.702;2023-08-07T02:13:48;10.73;;;2.10;;
76786;SDS011;65739;51.482;5.702;2023-08-07T02:16:14;12.73;;;2.40;;
76786;SDS011;65739;51.482;5.702;2023-08-07T02:18:39;9.90;;;2.17;;
76786;SDS011;65739;51.482;5.702;2023-08-07T02:21:05;9.43;;;1.90;;
76786;SDS011;65739;51.482;5.702;2023-08-07T02:23:31;8.10;;;2.10;;
76786;SDS011;65739;51.482;5.702;2023-08-07T02:25:56;7.43;;;1.90;;
76786;SDS011;65739;51.482;5.702;2023-08-07T02:28:22;11.32;;;2.17;;
76786;SDS011;65739;51.482;5.702;2023-08-07T02:30:47;11.40;;;2.05;;
76786;SDS011;65739;51.482;5.702;2023-08-07T02:35:43;9.00;;;2.30;;
76786;SDS011;65739;51.482;5.702;2023-08-07T02:38:09;4.55;;;1.48;;
76786;SDS011;65739;51.482;5.702;2023-08-07T02:40:35;6.95;;;2.20;;
76786;SDS011;65739;51.482;5.702;2023-08-07T02:43:00;7.70;;;1.88;;
76786;SDS011;65739;51.482;5.702;2023-08-07T02:45:26;8.70;;;2.25;;
76786;SDS011;65739;51.482;5.702;2023-08-07T02:47:52;8.48;;;2.45;;
76786;SDS011;65739;51.482;5.702;2023-08-07T02:50:17;12.25;;;2.50;;
76786;SDS011;65739;51.482;5.702;2023-08-07T02:52:43;10.80;;;2.50;;
76786;SDS011;65739;51.482;5.702;2023-08-07T02:55:08;10.13;;;2.38;;
76786;SDS011;65739;51.482;5.702;2023-08-07T02:57:34;12.65;;;2.45;;
76786;SDS011;65739;51.482;5.702;2023-08-07T02:59:59;11.23;;;2.30;;
76786;SDS011;65739;51.482;5.702;2023-08-07T03:02:25;9.07;;;2.35;;
76786;SDS011;65739;51.482;5.702;2023-08-07T03:04:50;9.65;;;2.05;;
76786;SDS011;65739;51.482;5.702;2023-08-07T03:07:16;13.40;;;3.35;;
76786;SDS011;65739;51.482;5.702;2023-08-07T03:09:44;9.77;;;2.20;;
76786;SDS011;65739;51.482;5.702;2023-08-07T03:12:11;10.88;;;2.22;;
76786;SDS011;65739;51.482;5.702;2023-08-07T03:14:37;8.93;;;2.33;;
76786;SDS011;65739;51.482;5.702;2023-08-07T03:17:02;11.55;;;2.30;;
76786;SDS011;65739;51.482;5.702;2023-08-07T03:19:28;16.75;;;2.63;;
76786;SDS011;65739;51.482;5.702;2023-08-07T03:21:53;18.52;;;2.45;;
76786;SDS011;65739;51.482;5.702;2023-08-07T03:24:19;12.63;;;2.72;;
76786;SDS011;65739;51.482;5.702;2023-08-07T03:26:44;10.25;;;2.60;;
76786;SDS011;65739;51.482;5.702;2023-08-07T03:29:12;8.98;;;2.50;;
76786;SDS011;65739;51.482;5.702;2023-08-07T03:31:38;14.07;;;2.75;;
76786;SDS011;65739;51.482;5.702;2023-08-07T03:34:03;12.50;;;2.28;;
76786;SDS011;65739;51.482;5.702;2023-08-07T03:36:29;14.65;;;2.78;;
76786;SDS011;65739;51.482;5.702;2023-08-07T03:38:54;9.43;;;2.25;;
76786;SDS011;65739;51.482;5.702;2023-08-07T03:41:20;9.50;;;2.28;;
76786;SDS011;65739;51.482;5.702;2023-08-07T03:43:46;10.60;;;2.83;;
76786;SDS011;65739;51.482;5.702;2023-08-07T03:46:11;15.00;;;2.92;;
76786;SDS011;65739;51.482;5.702;2023-08-07T03:48:37;12.45;;;2.60;;
76786;SDS011;65739;51.482;5.702;2023-08-07T03:51:06;12.73;;;2.53;;
76786;SDS011;65739;51.482;5.702;2023-08-07T03:53:36;9.40;;;2.50;;
76786;SDS011;65739;51.482;5.702;2023-08-07T03:56:02;15.65;;;2.80;;
76786;SDS011;65739;51.482;5.702;2023-08-07T03:58:28;6.45;;;1.85;;
76786;SDS011;65739;51.482;5.702;2023-08-07T04:00:53;8.90;;;2.05;;
76786;SDS011;65739;51.482;5.702;2023-08-07T04:03:20;12.18;;;2.72;;
76786;SDS011;65739;51.482;5.702;2023-08-07T04:05:46;9.00;;;2.60;;
76786;SDS011;65739;51.482;5.702;2023-08-07T04:08:11;12.00;;;2.28;;
76786;SDS011;65739;51.482;5.702;2023-08-07T04:10:37;8.15;;;2.15;;
76786;SDS011;65739;51.482;5.702;2023-08-07T04:13:02;14.20;;;2.97;;
76786;SDS011;65739;51.482;5.702;2023-08-07T04:15:28;17.55;;;3.45;;
76786;SDS011;65739;51.482;5.702;2023-08-07T04:17:53;8.55;;;2.35;;
76786;SDS011;65739;51.482;5.702;2023-08-07T04:20:19;14.63;;;2.53;;
76786;SDS011;65739;51.482;5.702;2023-08-07T04:22:45;10.90;;;2.60;;
76786;SDS011;65739;51.482;5.702;2023-08-07T04:25:11;16.55;;;2.70;;
76786;SDS011;65739;51.482;5.702;2023-08-07T04:27:37;17.15;;;3.65;;
76786;SDS011;65739;51.482;5.702;2023-08-07T04:30:04;10.98;;;2.83;;
76786;SDS011;65739;51.482;5.702;2023-08-07T04:32:30;8.98;;;2.55;;
76786;SDS011;65739;51.482;5.702;2023-08-07T04:34:56;8.75;;;2.13;;
76786;SDS011;65739;51.482;5.702;2023-08-07T04:37:21;12.90;;;2.83;;
76786;SDS011;65739;51.482;5.702;2023-08-07T04:39:47;7.22;;;2.63;;
76786;SDS011;65739;51.482;5.702;2023-08-07T04:42:13;16.13;;;2.88;;
76786;SDS011;65739;51.482;5.702;2023-08-07T04:44:38;16.23;;;3.08;;
76786;SDS011;65739;51.482;5.702;2023-08-07T04:47:04;9.63;;;2.33;;
76786;SDS011;65739;51.482;5.702;2023-08-07T04:49:30;14.77;;;3.33;;
76786;SDS011;65739;51.482;5.702;2023-08-07T04:51:56;7.75;;;2.20;;
76786;SDS011;65739;51.482;5.702;2023-08-07T04:54:21;12.80;;;2.90;;
76786;SDS011;65739;51.482;5.702;2023-08-07T04:56:47;12.93;;;2.67;;
76786;SDS011;65739;51.482;5.702;2023-08-07T04:59:12;8.32;;;2.40;;
76786;SDS011;65739;51.482;5.702;2023-08-07T05:01:38;9.27;;;2.58;;
76786;SDS011;65739;51.482;5.702;2023-08-07T05:04:04;17.25;;;3.28;;
76786;SDS011;65739;51.482;5.702;2023-08-07T05:06:30;8.70;;;2.60;;
76786;SDS011;65739;51.482;5.702;2023-08-07T05:08:56;10.95;;;2.33;;
76786;SDS011;65739;51.482;5.702;2023-08-07T05:11:21;6.82;;;2.33;;
76786;SDS011;65739;51.482;5.702;2023-08-07T05:13:47;10.25;;;2.15;;
76786;SDS011;65739;51.482;5.702;2023-08-07T05:16:13;4.85;;;1.98;;
76786;SDS011;65739;51.482;5.702;2023-08-07T05:18:38;14.27;;;2.40;;
76786;SDS011;65739;51.482;5.702;2023-08-07T05:21:04;13.25;;;2.55;;
76786;SDS011;65739;51.482;5.702;2023-08-07T05:23:29;8.95;;;2.20;;
76786;SDS011;65739;51.482;5.702;2023-08-07T05:25:55;10.02;;;2.30;;
76786;SDS011;65739;51.482;5.702;2023-08-07T05:28:21;8.88;;;2.03;;
76786;SDS011;65739;51.482;5.702;2023-08-07T05:30:46;9.80;;;2.45;;
76786;SDS011;65739;51.482;5.702;2023-08-07T05:33:12;5.50;;;1.77;;
76786;SDS011;65739;51.482;5.702;2023-08-07T05:35:39;9.07;;;2.08;;
76786;SDS011;65739;51.482;5.702;2023-08-07T05:38:05;11.23;;;1.85;;
76786;SDS011;65739;51.482;5.702;2023-08-07T05:40:30;8.32;;;1.80;;
76786;SDS011;65739;51.482;5.702;2023-08-07T05:42:56;8.35;;;2.13;;
76786;SDS011;65739;51.482;5.702;2023-08-07T05:45:22;10.20;;;2.20;;
76786;SDS011;65739;51.482;5.702;2023-08-07T05:47:47;5.13;;;1.80;;
76786;SDS011;65739;51.482;5.702;2023-08-07T05:50:13;6.72;;;1.73;;
76786;SDS011;65739;51.482;5.702;2023-08-07T05:52:38;10.38;;;1.90;;
76786;SDS011;65739;51.482;5.702;2023-08-07T05:55:04;8.80;;;1.90;;
76786;SDS011;65739;51.482;5.702;2023-08-07T05:57:30;7.28;;;2.03;;
76786;SDS011;65739;51.482;5.702;2023-08-07T05:59:56;13.10;;;2.22;;
76786;SDS011;65739;51.482;5.702;2023-08-07T06:02:21;9.88;;;2.42;;
76786;SDS011;65739;51.482;5.702;2023-08-07T06:04:47;9.18;;;1.75;;
76786;SDS011;65739;51.482;5.702;2023-08-07T06:07:13;12.30;;;2.85;;
76786;SDS011;65739;51.482;5.702;2023-08-07T06:09:39;10.40;;;2.58;;
76786;SDS011;65739;51.482;5.702;2023-08-07T06:12:04;7.07;;;2.03;;
76786;SDS011;65739;51.482;5.702;2023-08-07T06:14:30;10.48;;;2.47;;
76786;SDS011;65739;51.482;5.702;2023-08-07T06:16:56;13.60;;;2.72;;
76786;SDS011;65739;51.482;5.702;2023-08-07T06:19:23;12.73;;;2.45;;
76786;SDS011;65739;51.482;5.702;2023-08-07T06:21:48;8.48;;;1.95;;
76786;SDS011;65739;51.482;5.702;2023-08-07T06:24:14;11.55;;;2.40;;
76786;SDS011;65739;51.482;5.702;2023-08-07T06:26:40;9.93;;;2.25;;
76786;SDS011;65739;51.482;5.702;2023-08-07T06:29:05;13.07;;;2.55;;
76786;SDS011;65739;51.482;5.702;2023-08-07T06:31:31;10.95;;;2.60;;
76786;SDS011;65739;51.482;5.702;2023-08-07T06:33:56;8.68;;;2.03;;
76786;SDS011;65739;51.482;5.702;2023-08-07T06:36:24;8.60;;;2.05;;
76786;SDS011;65739;51.482;5.702;2023-08-07T06:38:50;8.60;;;2.40;;
76786;SDS011;65739;51.482;5.702;2023-08-07T06:41:16;10.75;;;2.70;;
76786;SDS011;65739;51.482;5.702;2023-08-07T06:43:41;12.07;;;2.40;;
76786;SDS011;65739;51.482;5.702;2023-08-07T06:46:07;10.38;;;2.28;;
76786;SDS011;65739;51.482;5.702;2023-08-07T06:48:32;13.27;;;1.85;;
76786;SDS011;65739;51.482;5.702;2023-08-07T06:50:58;11.38;;;1.90;;
76786;SDS011;65739;51.482;5.702;2023-08-07T06:53:23;8.57;;;1.90;;
76786;SDS011;65739;51.482;5.702;2023-08-07T06:55:49;9.07;;;1.77;;
76786;SDS011;65739;51.482;5.702;2023-08-07T06:58:14;10.38;;;1.98;;
76786;SDS011;65739;51.482;5.702;2023-08-07T07:00:40;10.38;;;2.17;;
76786;SDS011;65739;51.482;5.702;2023-08-07T07:03:06;7.80;;;2.05;;
76786;SDS011;65739;51.482;5.702;2023-08-07T07:05:32;6.90;;;1.63;;
76786;SDS011;65739;51.482;5.702;2023-08-07T07:07:58;8.85;;;1.98;;
76786;SDS011;65739;51.482;5.702;2023-08-07T07:19:07;8.73;;;1.60;;
76786;SDS011;65739;51.482;5.702;2023-08-07T07:21:34;10.75;;;1.95;;
76786;SDS011;65739;51.482;5.702;2023-08-07T07:24:01;12.10;;;2.05;;
76786;SDS011;65739;51.482;5.702;2023-08-07T07:26:27;9.15;;;1.60;;
76786;SDS011;65739;51.482;5.702;2023-08-07T07:28:53;4.97;;;1.90;;
76786;SDS011;65739;51.482;5.702;2023-08-07T07:31:19;9.82;;;1.83;;
76786;SDS011;65739;51.482;5.702;2023-08-07T07:33:44;11.85;;;2.35;;
76786;SDS011;65739;51.482;5.702;2023-08-07T07:36:17;7.63;;;1.90;;
76786;SDS011;65739;51.482;5.702;2023-08-07T07:38:46;10.18;;;1.92;;
76786;SDS011;65739;51.482;5.702;2023-08-07T07:41:12;17.95;;;2.33;;
76786;SDS011;65739;51.482;5.702;2023-08-07T07:43:42;8.27;;;1.70;;
76786;SDS011;65739;51.482;5.702;2023-08-07T07:46:10;7.55;;;2.17;;
76786;SDS011;65739;51.482;5.702;2023-08-07T07:48:36;9.32;;;2.10;;
76786;SDS011;65739;51.482;5.702;2023-08-07T07:51:04;6.80;;;1.80;;
76786;SDS011;65739;51.482;5.702;2023-08-07T07:53:30;8.32;;;1.92;;
76786;SDS011;65739;51.482;5.702;2023-08-07T07:56:07;9.57;;;1.63;;
76786;SDS011;65739;51.482;5.702;2023-08-07T07:58:32;8.30;;;2.17;;
76786;SDS011;65739;51.482;5.702;2023-08-07T08:00:58;12.05;;;2.25;;
76786;SDS011;65739;51.482;5.702;2023-08-07T08:03:26;14.20;;;2.13;;
76786;SDS011;65739;51.482;5.702;2023-08-07T08:05:52;10.23;;;2.30;;
76786;SDS011;65739;51.482;5.702;2023-08-07T08:08:18;9.88;;;2.25;;
76786;SDS011;65739;51.482;5.702;2023-08-07T08:10:45;8.77;;;2.17;;
76786;SDS011;65739;51.482;5.702;2023-08-07T08:13:14;11.50;;;2.30;;
76786;SDS011;65739;51.482;5.702;2023-08-07T08:15:40;9.40;;;2.45;;
76786;SDS011;65739;51.482;5.702;2023-08-07T08:18:08;10.73;;;2.30;;
76786;SDS011;65739;51.482;5.702;2023-08-07T08:20:36;9.15;;;2.05;;
76786;SDS011;65739;51.482;5.702;2023-08-07T08:23:02;6.85;;;1.70;;
76786;SDS011;65739;51.482;5.702;2023-08-07T08:25:31;8.13;;;2.53;;
76786;SDS011;65739;51.482;5.702;2023-08-07T08:27:58;9.57;;;1.88;;
76786;SDS011;65739;51.482;5.702;2023-08-07T08:30:24;8.98;;;2.22;;
76786;SDS011;65739;51.482;5.702;2023-08-07T08:36:04;5.63;;;1.65;;
76786;SDS011;65739;51.482;5.702;2023-08-07T08:38:30;7.50;;;1.83;;
76786;SDS011;65739;51.482;5.702;2023-08-07T08:41:08;7.18;;;2.05;;
76786;SDS011;65739;51.482;5.702;2023-08-07T08:43:36;7.60;;;1.83;;
76786;SDS011;65739;51.482;5.702;2023-08-07T08:46:05;4.57;;;1.60;;
76786;SDS011;65739;51.482;5.702;2023-08-07T08:48:44;7.32;;;2.00;;
76786;SDS011;65739;51.482;5.702;2023-08-07T08:51:24;10.03;;;2.23;;
76786;SDS011;65739;51.482;5.702;2023-08-07T08:53:51;6.47;;;2.30;;
76786;SDS011;65739;51.482;5.702;2023-08-07T08:56:21;9.57;;;2.45;;
76786;SDS011;65739;51.482;5.702;2023-08-07T08:58:47;7.47;;;2.00;;
76786;SDS011;65739;51.482;5.702;2023-08-07T09:01:19;9.52;;;1.60;;
76786;SDS011;65739;51.482;5.702;2023-08-07T09:03:45;10.02;;;1.75;;
76786;SDS011;65739;51.482;5.702;2023-08-07T09:06:13;8.90;;;1.70;;
76786;SDS011;65739;51.482;5.702;2023-08-07T09:08:42;9.77;;;1.40;;
76786;SDS011;65739;51.482;5.702;2023-08-07T09:11:26;10.10;;;2.13;;
76786;SDS011;65739;51.482;5.702;2023-08-07T09:13:54;6.03;;;1.67;;
76786;SDS011;65739;51.482;5.702;2023-08-07T09:16:21;5.75;;;1.65;;
76786;SDS011;65739;51.482;5.702;2023-08-07T09:18:50;4.65;;;1.48;;
76786;SDS011;65739;51.482;5.702;2023-08-07T09:21:16;6.47;;;1.60;;
76786;SDS011;65739;51.482;5.702;2023-08-07T09:23:42;7.05;;;1.92;;
76786;SDS011;65739;51.482;5.702;2023-08-07T09:26:11;10.50;;;1.77;;
76786;SDS011;65739;51.482;5.702;2023-08-07T09:28:37;8.48;;;1.52;;
76786;SDS011;65739;51.482;5.702;2023-08-07T09:31:05;4.30;;;1.30;;
76786;SDS011;65739;51.482;5.702;2023-08-07T09:33:33;8.70;;;1.93;;
76786;SDS011;65739;51.482;5.702;2023-08-07T09:35:59;5.88;;;1.48;;
76786;SDS011;65739;51.482;5.702;2023-08-07T09:38:29;8.85;;;2.00;;
76786;SDS011;65739;51.482;5.702;2023-08-07T09:41:01;7.72;;;1.55;;
76786;SDS011;65739;51.482;5.702;2023-08-07T09:43:28;6.32;;;1.58;;
76786;SDS011;65739;51.482;5.702;2023-08-07T09:46:01;6.55;;;1.60;;
76786;SDS011;65739;51.482;5.702;2023-08-07T09:48:30;7.32;;;1.35;;
76786;SDS011;65739;51.482;5.702;2023-08-07T09:51:02;4.43;;;1.10;;
76786;SDS011;65739;51.482;5.702;2023-08-07T09:53:29;5.85;;;1.70;;
76786;SDS011;65739;51.482;5.702;2023-08-07T09:55:55;7.50;;;1.60;;
76786;SDS011;65739;51.482;5.702;2023-08-07T09:58:21;5.80;;;1.60;;
76786;SDS011;65739;51.482;5.702;2023-08-07T10:00:47;9.02;;;1.70;;
76786;SDS011;65739;51.482;5.702;2023-08-07T10:03:14;5.18;;;1.23;;
76786;SDS011;65739;51.482;5.702;2023-08-07T10:05:42;6.07;;;1.65;;
76786;SDS011;65739;51.482;5.702;2023-08-07T10:08:08;4.45;;;1.20;;
76786;SDS011;65739;51.482;5.702;2023-08-07T10:10:35;3.97;;;1.30;;
76786;SDS011;65739;51.482;5.702;2023-08-07T10:13:03;5.80;;;1.52;;
76786;SDS011;65739;51.482;5.702;2023-08-07T10:15:29;2.55;;;1.10;;
76786;SDS011;65739;51.482;5.702;2023-08-07T10:17:56;7.20;;;1.67;;
76786;SDS011;65739;51.482;5.702;2023-08-07T10:20:24;5.15;;;1.85;;
76786;SDS011;65739;51.482;5.702;2023-08-07T10:22:52;6.93;;;1.77;;
76786;SDS011;65739;51.482;5.702;2023-08-07T10:25:20;4.97;;;1.15;;
76786;SDS011;65739;51.482;5.702;2023-08-07T10:27:47;7.20;;;1.73;;
76786;SDS011;65739;51.482;5.702;2023-08-07T10:30:17;7.80;;;1.60;;
76786;SDS011;65739;51.482;5.702;2023-08-07T10:32:45;5.97;;;1.42;;
76786;SDS011;65739;51.482;5.702;2023-08-07T10:35:24;5.15;;;1.52;;
76786;SDS011;65739;51.482;5.702;2023-08-07T10:37:51;5.43;;;1.55;;
76786;SDS011;65739;51.482;5.702;2023-08-07T10:40:20;6.03;;;1.40;;
76786;SDS011;65739;51.482;5.702;2023-08-07T10:42:59;4.95;;;1.48;;
76786;SDS011;65739;51.482;5.702;2023-08-07T10:45:36;5.13;;;1.20;;
76786;SDS011;65739;51.482;5.702;2023-08-07T10:48:05;5.03;;;1.35;;
76786;SDS011;65739;51.482;5.702;2023-08-07T10:56:33;5.63;;;1.40;;
76786;SDS011;65739;51.482;5.702;2023-08-07T10:59:10;3.58;;;0.90;;
76786;SDS011;65739;51.482;5.702;2023-08-07T11:04:05;2.97;;;1.02;;
76786;SDS011;65739;51.482;5.702;2023-08-07T11:06:35;5.80;;;1.13;;
76786;SDS011;65739;51.482;5.702;2023-08-07T11:09:02;4.30;;;1.13;;
76786;SDS011;65739;51.482;5.702;2023-08-07T11:11:32;3.25;;;1.05;;
76786;SDS011;65739;51.482;5.702;2023-08-07T11:14:04;3.72;;;1.00;;
76786;SDS011;65739;51.482;5.702;2023-08-07T11:16:34;4.30;;;1.13;;
76786;SDS011;65739;51.482;5.702;2023-08-07T11:19:00;3.20;;;1.20;;
76786;SDS011;65739;51.482;5.702;2023-08-07T11:21:26;5.03;;;1.20;;
76786;SDS011;65739;51.482;5.702;2023-08-07T11:23:52;4.22;;;1.15;;
76786;SDS011;65739;51.482;5.702;2023-08-07T11:26:18;2.92;;;1.05;;
76786;SDS011;65739;51.482;5.702;2023-08-07T11:28:47;3.45;;;1.13;;
76786;SDS011;65739;51.482;5.702;2023-08-07T11:31:13;4.53;;;1.42;;
76786;SDS011;65739;51.482;5.702;2023-08-07T11:33:39;3.17;;;1.30;;
76786;SDS011;65739;51.482;5.702;2023-08-07T11:36:12;5.75;;;1.40;;
76786;SDS011;65739;51.482;5.702;2023-08-07T11:38:39;6.78;;;1.10;;
76786;SDS011;65739;51.482;5.702;2023-08-07T11:41:10;5.40;;;1.77;;
76786;SDS011;65739;51.482;5.702;2023-08-07T11:43:36;5.18;;;1.13;;
76786;SDS011;65739;51.482;5.702;2023-08-07T11:46:03;5.80;;;0.95;;
76786;SDS011;65739;51.482;5.702;2023-08-07T11:48:31;2.40;;;1.10;;
76786;SDS011;65739;51.482;5.702;2023-08-07T11:50:58;6.32;;;1.10;;
76786;SDS011;65739;51.482;5.702;2023-08-07T11:53:25;7.10;;;1.77;;
76786;SDS011;65739;51.482;5.702;2023-08-07T11:56:00;4.65;;;1.50;;
76786;SDS011;65739;51.482;5.702;2023-08-07T11:58:31;3.75;;;1.02;;
76786;SDS011;65739;51.482;5.702;2023-08-07T12:01:06;5.57;;;1.77;;
76786;SDS011;65739;51.482;5.702;2023-08-07T12:03:37;2.47;;;1.20;;
76786;SDS011;65739;51.482;5.702;2023-08-07T12:06:19;4.30;;;1.27;;
76786;SDS011;65739;51.482;5.702;2023-08-07T12:08:47;3.78;;;1.42;;
76786;SDS011;65739;51.482;5.702;2023-08-07T12:11:19;3.80;;;1.20;;
76786;SDS011;65739;51.482;5.702;2023-08-07T12:13:46;2.50;;;1.20;;
76786;SDS011;65739;51.482;5.702;2023-08-07T12:16:13;4.07;;;1.10;;
76786;SDS011;65739;51.482;5.702;2023-08-07T12:18:44;3.53;;;1.27;;
76786;SDS011;65739;51.482;5.702;2023-08-07T12:21:13;5.10;;;1.10;;
76786;SDS011;65739;51.482;5.702;2023-08-07T12:23:41;2.50;;;0.90;;
76786;SDS011;65739;51.482;5.702;2023-08-07T12:26:06;3.38;;;1.30;;
76786;SDS011;65739;51.482;5.702;2023-08-07T12:28:32;2.78;;;1.20;;
76786;SDS011;65739;51.482;5.702;2023-08-07T12:31:01;5.10;;;1.83;;
76786;SDS011;65739;51.482;5.702;2023-08-07T12:33:30;5.03;;;1.45;;
76786;SDS011;65739;51.482;5.702;2023-08-07T12:35:57;4.88;;;1.20;;
76786;SDS011;65739;51.482;5.702;2023-08-07T12:38:23;3.63;;;1.40;;
76786;SDS011;65739;51.482;5.702;2023-08-07T12:40:49;3.53;;;1.27;;
76786;SDS011;65739;51.482;5.702;2023-08-07T12:43:14;7.68;;;1.50;;
76786;SDS011;65739;51.482;5.702;2023-08-07T12:45:40;3.15;;;1.35;;
76786;SDS011;65739;51.482;5.702;2023-08-07T12:48:05;3.50;;;1.40;;
76786;SDS011;65739;51.482;5.702;2023-08-07T12:50:34;3.55;;;1.10;;
76786;SDS011;65739;51.482;5.702;2023-08-07T12:53:01;2.85;;;1.13;;
76786;SDS011;65739;51.482;5.702;2023-08-07T12:55:27;3.40;;;1.17;;
76786;SDS011;65739;51.482;5.702;2023-08-07T12:57:53;8.63;;;1.60;;
76786;SDS011;65739;51.482;5.702;2023-08-07T13:00:19;4.88;;;1.35;;
76786;SDS011;65739;51.482;5.702;2023-08-07T13:02:46;5.82;;;1.50;;
76786;SDS011;65739;51.482;5.702;2023-08-07T13:05:15;3.72;;;1.00;;
76786;SDS011;65739;51.482;5.702;2023-08-07T13:07:44;5.35;;;1.50;;
76786;SDS011;65739;51.482;5.702;2023-08-07T13:10:14;4.13;;;1.70;;
76786;SDS011;65739;51.482;5.702;2023-08-07T13:12:41;3.40;;;1.50;;
76786;SDS011;65739;51.482;5.702;2023-08-07T13:15:09;7.68;;;1.45;;
76786;SDS011;65739;51.482;5.702;2023-08-07T13:17:38;8.47;;;2.17;;
76786;SDS011;65739;51.482;5.702;2023-08-07T13:20:04;3.70;;;1.65;;
76786;SDS011;65739;51.482;5.702;2023-08-07T13:22:36;6.10;;;2.17;;
76786;SDS011;65739;51.482;5.702;2023-08-07T13:25:03;6.55;;;1.88;;
76786;SDS011;65739;51.482;5.702;2023-08-07T13:27:29;4.63;;;1.80;;
76786;SDS011;65739;51.482;5.702;2023-08-07T13:29:58;4.22;;;1.73;;
76786;SDS011;65739;51.482;5.702;2023-08-07T13:32:24;4.82;;;1.50;;
76786;SDS011;65739;51.482;5.702;2023-08-07T13:34:53;3.97;;;1.90;;
76786;SDS011;65739;51.482;5.702;2023-08-07T13:37:19;6.07;;;2.65;;
76786;SDS011;65739;51.482;5.702;2023-08-07T13:39:44;5.53;;;1.73;;
76786;SDS011;65739;51.482;5.702;2023-08-07T13:42:13;5.82;;;1.85;;
76786;SDS011;65739;51.482;5.702;2023-08-07T13:44:38;4.47;;;1.88;;
76786;SDS011;65739;51.482;5.702;2023-08-07T13:47:04;3.83;;;1.75;;
76786;SDS011;65739;51.482;5.702;2023-08-07T13:49:31;5.50;;;2.03;;
76786;SDS011;65739;51.482;5.702;2023-08-07T13:51:57;5.50;;;2.20;;
76786;SDS011;65739;51.482;5.702;2023-08-07T13:54:22;3.25;;;1.52;;
76786;SDS011;65739;51.482;5.702;2023-08-07T13:56:48;10.02;;;1.88;;
76786;SDS011;65739;51.482;5.702;2023-08-07T13:59:15;7.20;;;1.90;;
76786;SDS011;65739;51.482;5.702;2023-08-07T14:01:40;2.92;;;1.67;;
76786;SDS011;65739;51.482;5.702;2023-08-07T14:04:06;5.03;;;1.75;;
76786;SDS011;65739;51.482;5.702;2023-08-07T14:06:32;5.22;;;2.13;;
76786;SDS011;65739;51.482;5.702;2023-08-07T14:08:58;5.05;;;1.65;;
76786;SDS011;65739;51.482;5.702;2023-08-07T14:11:23;4.13;;;1.85;;
76786;SDS011;65739;51.482;5.702;2023-08-07T14:13:56;4.22;;;1.80;;
76786;SDS011;65739;51.482;5.702;2023-08-07T14:16:22;8.85;;;1.83;;
76786;SDS011;65739;51.482;5.702;2023-08-07T14:18:48;3.95;;;1.67;;
76786;SDS011;65739;51.482;5.702;2023-08-07T14:21:14;2.58;;;1.65;;
76786;SDS011;65739;51.482;5.702;2023-08-07T14:23:39;5.55;;;1.55;;
76786;SDS011;65739;51.482;5.702;2023-08-07T14:26:07;2.97;;;1.52;;
76786;SDS011;65739;51.482;5.702;2023-08-07T14:28:33;6.22;;;1.48;;
76786;SDS011;65739;51.482;5.702;2023-08-07T14:30:59;3.33;;;1.65;;
76786;SDS011;65739;51.482;5.702;2023-08-07T14:33:25;3.88;;;1.52;;
76786;SDS011;65739;51.482;5.702;2023-08-07T14:35:54;5.50;;;1.42;;
76786;SDS011;65739;51.482;5.702;2023-08-07T14:38:20;4.95;;;1.55;;
76786;SDS011;65739;51.482;5.702;2023-08-07T14:40:45;2.17;;;1.35;;
76786;SDS011;65739;51.482;5.702;2023-08-07T14:43:11;2.65;;;1.70;;
76786;SDS011;65739;51.482;5.702;2023-08-07T14:45:36;3.60;;;1.70;;
76786;SDS011;65739;51.482;5.702;2023-08-07T14:48:02;2.08;;;1.52;;
76786;SDS011;65739;51.482;5.702;2023-08-07T14:50:28;4.45;;;1.67;;
76786;SDS011;65739;51.482;5.702;2023-08-07T14:52:54;4.40;;;1.70;;
76786;SDS011;65739;51.482;5.702;2023-08-07T14:55:19;3.38;;;1.65;;
76786;SDS011;65739;51.482;5.702;2023-08-07T14:57:45;4.28;;;1.52;;
76786;SDS011;65739;51.482;5.702;2023-08-07T15:00:11;4.65;;;1.42;;
76786;SDS011;65739;51.482;5.702;2023-08-07T15:02:37;6.05;;;1.60;;
76786;SDS011;65739;51.482;5.702;2023-08-07T15:05:04;1.85;;;1.05;;
76786;SDS011;65739;51.482;5.702;2023-08-07T15:07:30;3.60;;;1.35;;
76786;SDS011;65739;51.482;5.702;2023-08-07T15:09:56;3.28;;;1.50;;